createdAt,value
2022-11-30T00:01:59.425Z,24.63
2022-11-30T00:04:28.826Z,24.23
2022-11-30T00:06:57.155Z,24.85
2022-11-30T00:09:25.150Z,24.27
2022-11-30T00:11:52.979Z,24.70
2022-11-30T00:14:20.820Z,23.45
2022-11-30T00:16:48.702Z,24.58
2022-11-30T00:19:16.602Z,23.88
2022-11-30T00:21:45.858Z,24.50
2022-11-30T00:24:13.729Z,24.25
2022-11-30T00:26:41.747Z,24.05
2022-11-30T00:29:09.639Z,22.85
2022-11-30T00:31:37.495Z,26.67
2022-11-30T00:34:05.509Z,23.40
2022-11-30T00:36:33.401Z,24.75
2022-11-30T00:39:02.611Z,23.60
2022-11-30T00:41:30.553Z,26.45
2022-11-30T00:43:58.628Z,25.92
2022-11-30T00:46:26.490Z,25.50
2022-11-30T00:48:54.374Z,26.10
2022-11-30T00:51:22.327Z,26.48
2022-11-30T00:53:50.327Z,25.65
2022-11-30T00:56:19.649Z,23.88
2022-11-30T00:58:47.525Z,27.15
2022-11-30T01:01:15.427Z,25.95
2022-11-30T01:03:43.299Z,26.98
2022-11-30T01:06:11.637Z,26.13
2022-11-30T01:08:39.536Z,25.20
2022-11-30T01:11:10.494Z,24.83
2022-11-30T01:13:39.676Z,24.67
2022-11-30T01:16:12.500Z,23.88
2022-11-30T01:18:40.659Z,26.65
2022-11-30T01:21:09.682Z,23.90
2022-11-30T01:23:37.806Z,25.05
2022-11-30T01:26:05.665Z,23.77
2022-11-30T01:28:33.981Z,22.55
2022-11-30T01:31:05.722Z,22.35
2022-11-30T01:33:34.376Z,23.13
2022-11-30T01:36:04.167Z,22.60
2022-11-30T01:38:36.600Z,23.00
2022-11-30T01:41:05.440Z,23.08
2022-11-30T01:43:42.325Z,21.60
2022-11-30T01:46:25.712Z,21.60
2022-11-30T01:49:00.655Z,21.95
2022-11-30T01:51:33.412Z,22.23
2022-11-30T01:54:02.597Z,22.75
2022-11-30T01:56:30.559Z,22.38
2022-11-30T01:58:58.687Z,22.80
2022-11-30T02:01:28.130Z,22.60
2022-11-30T02:04:01.260Z,22.38
2022-11-30T02:06:30.493Z,22.92
2022-11-30T02:08:58.923Z,24.02
2022-11-30T02:11:28.652Z,23.45
2022-11-30T02:14:19.373Z,23.33
2022-11-30T02:16:58.178Z,23.25
2022-11-30T02:19:57.200Z,22.30
2022-11-30T02:22:38.350Z,22.20
2022-11-30T02:25:13.788Z,23.83
2022-11-30T02:27:59.456Z,23.35
2022-11-30T02:30:31.457Z,22.80
2022-11-30T02:33:06.038Z,21.10
2022-11-30T02:35:37.576Z,23.48
2022-11-30T02:38:06.294Z,22.80
2022-11-30T02:40:34.285Z,23.02
2022-11-30T02:43:04.565Z,22.15
2022-11-30T02:45:39.138Z,22.52
2022-11-30T02:48:10.259Z,22.23
2022-11-30T02:50:42.203Z,22.65
2022-11-30T02:53:11.194Z,22.33
2022-11-30T02:55:39.088Z,23.77
2022-11-30T02:58:07.071Z,22.30
2022-11-30T03:00:36.328Z,23.92
2022-11-30T03:03:04.787Z,22.08
2022-11-30T03:05:33.335Z,21.88
2022-11-30T03:08:01.258Z,21.35
2022-11-30T03:10:29.329Z,22.50
2022-11-30T03:12:59.138Z,21.80
2022-11-30T03:15:27.248Z,22.10
2022-11-30T03:17:56.579Z,23.58
2022-11-30T03:20:24.591Z,23.27
2022-11-30T03:22:52.517Z,22.98
2022-11-30T03:25:20.825Z,23.40
2022-11-30T03:27:48.967Z,22.92
2022-11-30T03:30:17.242Z,23.77
2022-11-30T03:32:45.187Z,23.42
2022-11-30T03:35:14.507Z,22.55
2022-11-30T03:37:42.447Z,21.95
2022-11-30T03:40:11.418Z,23.33
2022-11-30T03:42:39.380Z,23.30
2022-11-30T03:45:08.099Z,21.60
2022-11-30T03:47:36.178Z,22.20
2022-11-30T03:50:04.908Z,22.50
2022-11-30T03:52:34.176Z,21.35
2022-11-30T03:55:02.041Z,22.35
2022-11-30T03:57:30.020Z,21.85
2022-11-30T03:59:57.869Z,20.52
2022-11-30T04:02:25.862Z,20.70
2022-11-30T04:04:53.944Z,20.60
2022-11-30T04:07:22.033Z,21.33
2022-11-30T04:09:51.278Z,20.33
2022-11-30T04:12:19.107Z,21.25
2022-11-30T04:14:47.239Z,21.55
2022-11-30T04:17:15.271Z,22.45
2022-11-30T04:19:43.290Z,22.42
2022-11-30T04:22:11.381Z,22.70
2022-11-30T04:24:39.212Z,21.38
2022-11-30T04:27:08.462Z,20.60
2022-11-30T04:29:36.352Z,21.83
2022-11-30T04:32:04.603Z,22.13
2022-11-30T04:34:32.574Z,22.48
2022-11-30T04:37:00.805Z,22.95
2022-11-30T04:39:28.751Z,23.60
2022-11-30T04:41:56.683Z,23.25
2022-11-30T04:44:26.128Z,24.20
2022-11-30T04:46:54.165Z,23.20
2022-11-30T04:49:22.032Z,24.40
2022-11-30T04:51:50.043Z,24.25
2022-11-30T04:54:17.896Z,25.60
2022-11-30T04:56:45.914Z,24.55
2022-11-30T04:59:13.740Z,24.73
2022-11-30T05:01:43.019Z,26.38
2022-11-30T05:04:11.336Z,23.42
2022-11-30T05:06:39.386Z,24.33
2022-11-30T05:09:09.813Z,24.95
2022-11-30T05:11:37.945Z,24.67
2022-11-30T05:14:06.383Z,24.27
2022-11-30T05:16:34.374Z,24.60
2022-11-30T05:19:03.984Z,25.42
2022-11-30T05:21:32.227Z,24.60
2022-11-30T05:24:00.366Z,25.75
2022-11-30T05:26:28.276Z,24.20
2022-11-30T05:28:56.616Z,25.40
2022-11-30T05:31:24.757Z,25.55
2022-11-30T05:33:53.427Z,23.95
2022-11-30T05:36:22.948Z,24.95
2022-11-30T05:38:50.855Z,24.13
2022-11-30T05:41:18.729Z,25.90
2022-11-30T05:43:46.602Z,23.30
2022-11-30T05:46:14.592Z,23.42
2022-11-30T05:48:42.466Z,23.55
2022-11-30T05:51:12.162Z,23.92
2022-11-30T05:53:41.600Z,23.05
2022-11-30T05:56:11.961Z,24.20
2022-11-30T05:58:40.807Z,25.80
2022-11-30T06:01:09.185Z,23.27
2022-11-30T06:03:37.484Z,22.55
2022-11-30T06:06:05.659Z,22.92
2022-11-30T06:08:34.005Z,20.75
2022-11-30T06:11:03.677Z,21.50
2022-11-30T06:13:32.764Z,22.27
2022-11-30T06:16:01.190Z,21.67
2022-11-30T06:18:29.639Z,22.02
2022-11-30T06:21:02.440Z,22.58
2022-11-30T06:23:30.696Z,20.73
2022-11-30T06:25:58.564Z,21.85
2022-11-30T06:28:27.790Z,20.85
2022-11-30T06:30:59.588Z,21.67
2022-11-30T06:33:27.787Z,23.17
2022-11-30T06:35:56.358Z,21.10
2022-11-30T06:38:25.887Z,20.92
2022-11-30T06:40:54.333Z,21.17
2022-11-30T06:43:22.341Z,18.17
2022-11-30T06:45:51.714Z,20.33
2022-11-30T06:48:22.434Z,18.67
2022-11-30T06:50:50.607Z,18.50
2022-11-30T06:53:18.585Z,18.20
2022-11-30T06:55:46.578Z,17.85
2022-11-30T06:58:14.529Z,17.63
2022-11-30T07:00:42.771Z,17.80
2022-11-30T07:03:12.939Z,17.38
2022-11-30T07:05:43.537Z,17.58
2022-11-30T07:08:11.608Z,18.20
2022-11-30T07:10:44.236Z,17.23
2022-11-30T07:13:12.948Z,18.38
2022-11-30T07:15:43.502Z,17.65
2022-11-30T07:18:13.372Z,18.52
2022-11-30T07:20:41.453Z,18.35
2022-11-30T07:23:27.460Z,17.40
2022-11-30T07:26:09.575Z,18.33
2022-11-30T07:28:39.910Z,17.63
2022-11-30T07:31:16.793Z,16.90
2022-11-30T07:33:46.234Z,18.20
2022-11-30T07:36:14.429Z,15.50
2022-11-30T07:38:42.409Z,17.48
2022-11-30T07:41:10.920Z,15.55
2022-11-30T07:43:39.471Z,16.58
2022-11-30T07:46:08.466Z,16.15
2022-11-30T07:48:36.370Z,16.33
2022-11-30T07:51:07.093Z,14.60
2022-11-30T07:53:35.553Z,16.40
2022-11-30T07:56:05.336Z,17.00
2022-11-30T07:58:33.756Z,16.27
2022-11-30T08:01:03.780Z,16.02
2022-11-30T08:03:36.612Z,17.25
2022-11-30T08:06:08.826Z,15.55
2022-11-30T08:08:40.931Z,15.13
2022-11-30T08:11:11.159Z,16.95
2022-11-30T08:13:39.645Z,16.83
2022-11-30T08:16:10.221Z,16.30
2022-11-30T08:18:38.067Z,16.60
2022-11-30T08:21:09.737Z,16.10
2022-11-30T08:23:39.632Z,15.23
2022-11-30T08:26:09.813Z,15.13
2022-11-30T08:28:38.184Z,16.15
2022-11-30T08:31:09.904Z,15.85
2022-11-30T08:33:38.892Z,15.93
2022-11-30T08:36:09.510Z,15.32
2022-11-30T08:38:38.229Z,17.45
2022-11-30T08:41:07.205Z,16.55
2022-11-30T08:43:38.257Z,15.23
2022-11-30T08:46:34.556Z,18.40
2022-11-30T08:49:13.064Z,17.15
2022-11-30T08:52:15.870Z,15.95
2022-11-30T08:54:36.902Z,17.25
2022-11-30T08:57:05.781Z,17.38
2022-11-30T08:59:33.804Z,17.67
2022-11-30T09:02:01.833Z,18.10
2022-11-30T09:04:30.126Z,18.98
2022-11-30T09:07:01.027Z,19.98
2022-11-30T09:09:29.183Z,17.45
2022-11-30T09:11:57.532Z,18.20
2022-11-30T09:14:25.620Z,18.30
2022-11-30T09:16:54.464Z,18.70
2022-11-30T09:19:23.008Z,18.75
2022-11-30T09:21:52.275Z,18.05
2022-11-30T09:24:21.992Z,19.77
2022-11-30T09:26:49.795Z,19.45
2022-11-30T09:29:17.770Z,20.67
2022-11-30T09:31:45.708Z,20.15
2022-11-30T09:34:14.121Z,19.50
2022-11-30T09:36:42.072Z,17.92
2022-11-30T09:39:13.142Z,19.73
2022-11-30T09:42:10.582Z,20.52
2022-11-30T09:44:51.056Z,21.30
2022-11-30T09:47:43.057Z,19.85
2022-11-30T09:50:15.567Z,21.65
2022-11-30T09:52:47.780Z,21.87
2022-11-30T09:55:27.544Z,22.70
2022-11-30T09:58:01.932Z,22.67
2022-11-30T10:00:31.879Z,21.52
2022-11-30T10:03:05.659Z,21.83
2022-11-30T10:05:47.418Z,22.35
2022-11-30T10:08:28.768Z,21.65
2022-11-30T10:11:14.941Z,22.42
2022-11-30T10:13:57.361Z,23.05
2022-11-30T10:16:36.175Z,23.25
2022-11-30T10:19:16.870Z,21.88
2022-11-30T10:21:58.554Z,22.52
2022-11-30T10:24:37.207Z,23.63
2022-11-30T10:27:16.045Z,22.42
2022-11-30T10:29:45.545Z,23.60
2022-11-30T10:32:20.927Z,20.65
2022-11-30T10:34:52.746Z,23.30
2022-11-30T10:37:31.355Z,23.42
2022-11-30T10:40:02.750Z,22.83
2022-11-30T10:42:36.161Z,21.90
2022-11-30T10:45:10.937Z,23.02
2022-11-30T10:47:44.712Z,21.55
2022-11-30T10:50:17.894Z,21.60
2022-11-30T10:52:48.736Z,21.30
2022-11-30T10:55:20.444Z,21.80
2022-11-30T10:57:51.029Z,22.40
2022-11-30T11:00:21.388Z,22.92
2022-11-30T11:02:50.680Z,22.40
2022-11-30T11:05:22.993Z,22.08
2022-11-30T11:07:55.299Z,21.75
2022-11-30T11:10:30.456Z,21.52
2022-11-30T11:12:58.715Z,23.50
2022-11-30T11:15:30.280Z,22.33
2022-11-30T11:18:26.102Z,24.35
2022-11-30T11:21:07.124Z,22.42
2022-11-30T11:23:38.189Z,24.75
2022-11-30T11:26:07.586Z,23.17
2022-11-30T11:28:37.614Z,24.35
2022-11-30T11:31:20.142Z,23.92
2022-11-30T11:33:53.076Z,23.20
2022-11-30T11:36:28.872Z,24.95
2022-11-30T11:38:58.097Z,24.85
2022-11-30T11:41:29.902Z,24.75
2022-11-30T11:44:03.578Z,23.92
2022-11-30T11:46:34.328Z,21.98
2022-11-30T11:49:05.647Z,23.17
2022-11-30T11:51:37.275Z,23.75
2022-11-30T11:54:19.627Z,24.20
2022-11-30T11:56:48.030Z,23.05
2022-11-30T11:59:22.391Z,23.08
2022-11-30T12:01:58.438Z,23.27
2022-11-30T12:04:51.456Z,24.15
2022-11-30T12:07:28.586Z,23.05
2022-11-30T12:10:50.045Z,24.65
2022-11-30T12:13:13.993Z,21.77
2022-11-30T12:15:54.208Z,24.83
2022-11-30T12:18:29.242Z,24.73
2022-11-30T12:21:01.659Z,22.50
2022-11-30T12:23:58.125Z,26.75
2022-11-30T12:26:35.594Z,25.25
2022-11-30T12:29:21.384Z,25.27
2022-11-30T12:32:03.483Z,25.10
2022-11-30T12:35:00.954Z,25.20
2022-11-30T12:37:41.693Z,25.55
2022-11-30T12:40:27.312Z,26.40
2022-11-30T12:43:02.927Z,25.70
2022-11-30T12:45:36.867Z,26.02
2022-11-30T12:48:16.132Z,25.42
2022-11-30T12:51:01.906Z,26.42
2022-11-30T12:53:35.544Z,28.27
2022-11-30T12:58:47.375Z,28.27
2022-11-30T13:01:31.739Z,27.30
2022-11-30T13:04:07.898Z,28.55
2022-11-30T13:06:42.864Z,28.33
2022-11-30T13:09:17.051Z,28.58
2022-11-30T13:11:49.257Z,27.98
2022-11-30T13:14:22.622Z,27.90
2022-11-30T13:16:57.364Z,27.02
2022-11-30T13:19:40.981Z,27.52
2022-11-30T13:22:17.824Z,28.02
2022-11-30T13:24:54.639Z,28.85
2022-11-30T13:27:26.403Z,27.50
2022-11-30T13:30:26.924Z,30.88
2022-11-30T13:32:58.956Z,29.13
2022-11-30T13:35:46.272Z,31.92
2022-11-30T13:38:36.488Z,32.35
2022-11-30T13:41:08.650Z,29.50
2022-11-30T13:43:42.725Z,31.90
2022-11-30T13:46:20.376Z,29.92
2022-11-30T13:48:49.377Z,31.42
2022-11-30T13:51:35.831Z,33.03
2022-11-30T13:54:42.315Z,34.22
2022-11-30T13:57:20.226Z,32.25
2022-11-30T13:59:51.547Z,32.70
2022-11-30T14:02:59.205Z,32.88
2022-11-30T14:05:43.018Z,33.42
2022-11-30T14:08:40.851Z,34.15
2022-11-30T14:11:38.183Z,33.95
2022-11-30T14:14:45.603Z,33.65
2022-11-30T14:17:27.010Z,35.13
2022-11-30T14:19:59.643Z,34.70
2022-11-30T14:22:30.076Z,34.53
2022-11-30T14:24:58.757Z,34.47
2022-11-30T14:27:29.844Z,34.03
2022-11-30T14:30:03.070Z,34.20
2022-11-30T14:32:37.861Z,34.33
2022-11-30T14:35:10.714Z,35.67
2022-11-30T14:37:44.610Z,35.53
2022-11-30T14:40:19.863Z,35.00
2022-11-30T14:42:50.107Z,33.33
2022-11-30T14:45:24.721Z,33.08
2022-11-30T14:48:06.894Z,33.88
2022-11-30T14:50:36.602Z,34.22
2022-11-30T14:53:26.860Z,34.38
2022-11-30T14:56:14.479Z,33.63
2022-11-30T14:58:55.354Z,34.67
2022-11-30T15:01:36.529Z,33.72
2022-11-30T15:04:08.112Z,35.13
2022-11-30T15:06:39.426Z,33.70
2022-11-30T15:09:16.426Z,32.17
2022-11-30T15:11:46.205Z,34.35
2022-11-30T15:14:14.376Z,33.10
2022-11-30T15:16:50.827Z,32.92
2022-11-30T15:19:24.432Z,34.10
2022-11-30T15:24:21.272Z,33.70
2022-11-30T15:26:56.224Z,34.42
2022-11-30T15:29:29.031Z,30.25
2022-11-30T15:32:00.417Z,35.10
2022-11-30T15:34:40.529Z,33.88
2022-11-30T15:37:08.674Z,31.90
2022-11-30T15:39:37.254Z,33.20
2022-11-30T15:42:06.537Z,33.67
2022-11-30T15:44:44.196Z,34.85
2022-11-30T15:47:27.573Z,39.58
2022-11-30T15:49:56.722Z,44.03
2022-11-30T15:52:28.241Z,38.70
2022-11-30T15:54:58.771Z,34.13
2022-11-30T15:57:30.835Z,34.40
2022-11-30T16:00:09.015Z,35.65
2022-11-30T16:02:39.438Z,35.50
2022-11-30T16:05:25.879Z,35.75
2022-11-30T16:07:55.923Z,34.22
2022-11-30T16:10:25.953Z,34.42
2022-11-30T16:12:55.495Z,35.42
2022-11-30T16:15:26.530Z,35.03
2022-11-30T16:18:00.200Z,35.28
2022-11-30T16:22:59.885Z,32.47
2022-11-30T16:25:30.782Z,36.38
2022-11-30T16:27:58.845Z,35.25
2022-11-30T16:30:27.774Z,37.55
2022-11-30T16:32:57.196Z,35.92
2022-11-30T16:35:30.651Z,34.88
2022-11-30T16:37:58.719Z,35.15
2022-11-30T16:40:26.851Z,37.20
2022-11-30T16:42:54.973Z,36.92
2022-11-30T16:45:25.060Z,36.33
2022-11-30T16:47:53.371Z,34.72
2022-11-30T16:50:22.923Z,37.13
2022-11-30T16:52:50.972Z,37.40
2022-11-30T16:55:21.355Z,35.65
2022-11-30T16:57:50.426Z,37.55
2022-11-30T17:00:20.621Z,37.78
2022-11-30T17:02:57.752Z,35.75
2022-11-30T17:05:27.560Z,37.33
2022-11-30T17:07:55.931Z,35.42
2022-11-30T17:10:24.028Z,40.65
2022-11-30T17:12:52.085Z,36.40
2022-11-30T17:15:23.524Z,34.08
2022-11-30T17:17:51.558Z,39.53
2022-11-30T17:20:20.194Z,38.63
2022-11-30T17:22:49.527Z,38.60
2022-11-30T17:25:20.612Z,37.05
2022-11-30T17:27:50.542Z,36.83
2022-11-30T17:30:20.887Z,37.58
2022-11-30T17:32:49.104Z,39.25
2022-11-30T17:35:17.140Z,36.33
2022-11-30T17:37:45.040Z,38.15
2022-11-30T17:40:16.092Z,40.22
2022-11-30T17:42:44.840Z,35.28
2022-11-30T17:45:13.047Z,35.88
2022-11-30T17:47:41.080Z,38.75
2022-11-30T17:50:10.109Z,38.53
2022-11-30T17:52:38.148Z,37.10
2022-11-30T17:55:06.969Z,34.22
2022-11-30T17:57:38.156Z,39.08
2022-11-30T18:00:07.704Z,37.58
2022-11-30T18:02:35.828Z,36.53
2022-11-30T18:05:03.981Z,36.78
2022-11-30T18:07:31.954Z,36.38
2022-11-30T18:10:01.745Z,37.85
2022-11-30T18:12:29.566Z,37.15
2022-11-30T18:14:58.841Z,35.47
2022-11-30T18:17:26.779Z,37.63
2022-11-30T18:19:54.660Z,34.97
2022-11-30T18:22:22.643Z,36.40
2022-11-30T18:24:51.097Z,35.65
2022-11-30T18:27:19.054Z,37.17
2022-11-30T18:29:46.897Z,36.22
2022-11-30T18:32:16.301Z,37.97
2022-11-30T18:34:49.202Z,34.78
2022-11-30T18:37:17.601Z,36.97
2022-11-30T18:39:45.788Z,35.65
2022-11-30T18:42:16.363Z,35.20
2022-11-30T18:44:45.027Z,35.35
2022-11-30T18:47:13.329Z,36.67
2022-11-30T18:49:43.251Z,34.88
2022-11-30T18:52:12.103Z,37.08
2022-11-30T18:54:40.303Z,33.85
2022-11-30T18:57:08.520Z,37.33
2022-11-30T18:59:36.695Z,36.60
2022-11-30T19:02:05.867Z,36.90
2022-11-30T19:04:34.179Z,35.10
2022-11-30T19:07:04.128Z,34.53
2022-11-30T19:09:32.440Z,36.88
2022-11-30T19:12:00.698Z,35.28
2022-11-30T19:14:29.144Z,34.28
2022-11-30T19:16:57.967Z,34.47
2022-11-30T19:19:28.148Z,34.80
2022-11-30T19:21:58.217Z,36.13
2022-11-30T19:24:28.361Z,35.17
2022-11-30T19:26:56.823Z,36.75
2022-11-30T19:29:24.895Z,37.08
2022-11-30T19:31:52.739Z,34.20
2022-11-30T19:34:21.379Z,34.30
2022-11-30T19:36:49.686Z,37.58
2022-11-30T19:39:18.217Z,35.90
2022-11-30T19:41:48.056Z,34.88
2022-11-30T19:44:16.767Z,36.67
2022-11-30T19:46:44.804Z,35.88
2022-11-30T19:49:12.823Z,35.85
2022-11-30T19:51:40.790Z,35.38
2022-11-30T19:54:08.819Z,36.95
2022-11-30T19:56:38.904Z,36.65
2022-11-30T19:59:08.418Z,34.63
2022-11-30T20:01:37.537Z,38.65
2022-11-30T20:04:06.069Z,37.22
2022-11-30T20:06:37.461Z,34.42
2022-11-30T20:09:07.501Z,36.35
2022-11-30T20:11:36.132Z,36.45
2022-11-30T20:14:04.588Z,38.22
2022-11-30T20:16:34.024Z,39.13
2022-11-30T20:19:03.196Z,38.60
2022-11-30T20:21:33.436Z,37.70
2022-11-30T20:24:04.523Z,38.15
2022-11-30T20:26:34.651Z,38.72
2022-11-30T20:29:04.257Z,35.80
2022-11-30T20:31:35.489Z,36.88
2022-11-30T20:34:03.850Z,36.25
2022-11-30T20:36:32.226Z,39.30
2022-11-30T20:39:00.662Z,35.45
2022-11-30T20:41:28.624Z,37.95
2022-11-30T20:43:57.005Z,36.70
2022-11-30T20:46:27.425Z,38.72
2022-11-30T20:48:57.612Z,38.20
2022-11-30T20:51:32.206Z,37.78
2022-11-30T20:54:05.704Z,39.15
2022-11-30T20:56:35.377Z,38.60
2022-11-30T20:59:06.128Z,40.05
2022-11-30T21:01:38.859Z,38.58
2022-11-30T21:04:08.722Z,36.33
2022-11-30T21:06:37.037Z,36.92
2022-11-30T21:09:05.708Z,38.05
2022-11-30T21:11:34.051Z,36.20
2022-11-30T21:14:02.409Z,38.78
2022-11-30T21:16:30.659Z,38.47
2022-11-30T21:18:59.850Z,37.15
2022-11-30T21:21:31.672Z,39.60
2022-11-30T21:24:01.187Z,38.85
2022-11-30T21:26:31.732Z,38.08
2022-11-30T21:29:02.061Z,39.63
2022-11-30T21:31:30.608Z,40.92
2022-11-30T21:33:58.792Z,36.83
2022-11-30T21:36:27.449Z,40.55
2022-11-30T21:39:04.420Z,38.05
2022-11-30T21:41:34.080Z,41.35
2022-11-30T21:44:02.216Z,41.63
2022-11-30T21:46:30.319Z,39.80
2022-11-30T21:48:58.913Z,37.28
2022-11-30T21:51:28.873Z,40.70
2022-11-30T21:54:00.406Z,38.47
2022-11-30T21:56:29.990Z,38.15
2022-11-30T21:58:58.475Z,38.50
2022-11-30T22:01:28.461Z,38.40
2022-11-30T22:03:58.024Z,39.50
2022-11-30T22:06:27.532Z,37.60
2022-11-30T22:09:02.654Z,37.42
2022-11-30T22:11:31.743Z,40.15
2022-11-30T22:13:59.771Z,46.47
2022-11-30T22:16:35.960Z,43.70
2022-11-30T22:19:05.661Z,44.97
2022-11-30T22:21:34.244Z,45.00
2022-11-30T22:24:05.529Z,43.75
2022-11-30T22:26:35.238Z,39.28
2022-11-30T22:29:06.427Z,39.90
2022-11-30T22:31:37.760Z,40.60
2022-11-30T22:34:06.540Z,40.92
2022-11-30T22:36:36.415Z,39.53
2022-11-30T22:39:09.187Z,39.95
2022-11-30T22:41:37.632Z,40.63
2022-11-30T22:44:05.982Z,39.53
2022-11-30T22:46:35.797Z,36.83
2022-11-30T22:49:06.088Z,40.38
2022-11-30T22:51:35.598Z,38.13
2022-11-30T22:54:05.725Z,38.13
2022-11-30T22:56:35.426Z,39.85
2022-11-30T22:59:04.601Z,37.55
2022-11-30T23:01:34.578Z,40.92
2022-11-30T23:04:06.096Z,37.17
2022-11-30T23:06:35.169Z,40.65
2022-11-30T23:09:04.237Z,41.20
2022-11-30T23:11:34.513Z,37.65
2022-11-30T23:14:08.035Z,40.10
2022-11-30T23:16:37.712Z,39.53
2022-11-30T23:19:07.171Z,38.75
2022-11-30T23:21:41.049Z,38.08
2022-11-30T23:24:13.729Z,39.35
2022-11-30T23:26:43.793Z,37.78
2022-11-30T23:29:13.529Z,40.63
2022-11-30T23:31:43.478Z,42.35
2022-11-30T23:34:13.513Z,39.35
2022-11-30T23:36:41.365Z,37.63
2022-11-30T23:39:11.178Z,39.47
2022-11-30T23:41:39.736Z,37.92
2022-11-30T23:44:09.560Z,38.55
2022-11-30T23:46:38.188Z,38.17
2022-11-30T23:49:06.329Z,39.72
2022-11-30T23:51:34.196Z,40.83
2022-11-30T23:54:02.194Z,39.92
2022-11-30T23:56:30.238Z,39.30
2022-11-30T23:58:58.288Z,39.45
